Time,TemperatureF,DewpointF,PressureIn,WindDirection,WindDirectionDegrees,WindSpeedMPH,WindSpeedGustMPH,Humidity,HourlyPrecipIn,Conditions,Clouds,dailyrainin,SolarRadiationWatts/m^2,SoftwareType,DateUTC
2013-02-13 00:02:00,26.0,12.0,-100.00,SW,233,14.0,31.0,55,-99.99,,,0.01,256.000000,,2013-02-13 00:02:00,
2013-02-13 00:11:00,26.0,12.0,-100.00,SW,233,14.0,31.0,55,-99.99,,,0.01,256.000000,,2013-02-13 00:11:00,
2013-02-13 00:21:00,26.0,12.0,-100.00,SW,233,14.0,31.0,55,-99.99,,,0.01,256.000000,,2013-02-13 00:21:00,
2013-02-13 00:32:00,26.0,12.0,-100.00,SW,233,14.0,31.0,55,-99.99,,,0.01,256.000000,,2013-02-13 00:32:00,
2013-02-13 00:40:00,25.0,14.0,-100.00,West,274,23.0,40.0,62,0.00,,,0.01,94.000000,,2013-02-13 00:40:00,
2013-02-13 01:40:00,25.0,13.0,-100.00,West,275,16.0,41.0,59,0.01,,,0.02,0.000000,,2013-02-13 01:40:00,
2013-02-13 02:11:00,25.0,13.0,-100.00,West,275,16.0,41.0,59,0.01,,,0.02,0.000000,,2013-02-13 02:11:00,
2013-02-13 02:21:00,25.0,13.0,-100.00,West,275,16.0,41.0,59,0.01,,,0.02,0.000000,,2013-02-13 02:21:00,
2013-02-13 02:31:00,25.0,13.0,-100.00,West,275,16.0,41.0,59,0.01,,,0.02,0.000000,,2013-02-13 02:31:00,
2013-02-13 02:40:00,22.0,12.0,-100.00,West,274,15.0,39.0,64,0.00,,,0.02,0.000000,,2013-02-13 02:40:00,
2013-02-13 03:01:00,22.0,12.0,-100.00,West,274,15.0,39.0,64,0.00,,,0.02,0.000000,,2013-02-13 03:01:00,
2013-02-13 03:11:00,22.0,12.0,-100.00,West,274,15.0,39.0,64,0.00,,,0.02,0.000000,,2013-02-13 03:11:00,
2013-02-13 03:21:00,22.0,12.0,-100.00,West,274,15.0,39.0,64,0.00,,,0.02,0.000000,,2013-02-13 03:21:00,
2013-02-13 03:32:00,22.0,12.0,-100.00,West,274,15.0,39.0,64,0.00,,,0.02,0.000000,,2013-02-13 03:32:00,
2013-02-13 03:40:00,22.0,12.0,-100.00,West,269,18.0,31.0,64,0.00,,,0.02,0.000000,,2013-02-13 03:40:00,
2013-02-13 04:01:00,22.0,12.0,-100.00,West,269,18.0,31.0,64,0.00,,,0.02,0.000000,,2013-02-13 04:01:00,
2013-02-13 04:11:00,22.0,12.0,-100.00,West,269,18.0,31.0,64,0.00,,,0.02,0.000000,,2013-02-13 04:11:00,
2013-02-13 04:21:00,22.0,12.0,-100.00,West,269,18.0,31.0,64,0.00,,,0.02,0.000000,,2013-02-13 04:21:00,
2013-02-13 04:31:00,22.0,12.0,-100.00,West,269,18.0,31.0,64,0.00,,,0.02,0.000000,,2013-02-13 04:31:00,
2013-02-13 04:40:00,20.0,11.0,-100.00,SW,232,14.0,34.0,67,0.00,,,0.02,0.000000,,2013-02-13 04:40:00,
2013-02-13 05:01:00,20.0,11.0,-100.00,SW,232,14.0,34.0,67,0.00,,,0.02,0.000000,,2013-02-13 05:01:00,
2013-02-13 05:11:00,20.0,11.0,-100.00,SW,232,14.0,34.0,67,0.00,,,0.02,0.000000,,2013-02-13 05:11:00,
2013-02-13 05:22:00,20.0,11.0,-100.00,SW,232,14.0,34.0,67,0.00,,,0.02,0.000000,,2013-02-13 05:22:00,
2013-02-13 05:31:00,20.0,11.0,-100.00,SW,232,14.0,34.0,67,0.00,,,0.02,0.000000,,2013-02-13 05:31:00,
2013-02-13 05:40:00,23.0,12.0,-100.00,West,268,26.0,40.0,63,0.00,,,0.02,0.000000,,2013-02-13 05:40:00,
2013-02-13 06:02:00,23.0,12.0,-100.00,West,268,26.0,40.0,63,0.00,,,0.02,0.000000,,2013-02-13 06:02:00,
2013-02-13 06:11:00,23.0,12.0,-100.00,West,268,26.0,40.0,63,0.00,,,0.02,0.000000,,2013-02-13 06:11:00,
2013-02-13 06:21:00,23.0,12.0,-100.00,West,268,26.0,40.0,63,0.00,,,0.02,0.000000,,2013-02-13 06:21:00,
2013-02-13 06:31:00,23.0,12.0,-100.00,West,268,26.0,40.0,63,0.00,,,0.02,0.000000,,2013-02-13 06:31:00,
2013-02-13 07:02:00,24.0,13.0,-100.00,West,271,29.0,48.0,61,0.00,,,0.02,0.000000,,2013-02-13 07:02:00,
2013-02-13 07:11:00,24.0,13.0,-100.00,West,271,29.0,48.0,61,0.00,,,0.02,0.000000,,2013-02-13 07:11:00,
2013-02-13 07:21:00,24.0,13.0,-100.00,West,271,29.0,48.0,61,0.00,,,0.02,0.000000,,2013-02-13 07:21:00,
2013-02-13 07:31:00,24.0,13.0,-100.00,West,271,29.0,48.0,61,0.00,,,0.02,0.000000,,2013-02-13 07:31:00,
2013-02-13 08:01:00,23.0,12.0,-100.00,WSW,240,27.0,43.0,61,-99.99,,,0.02,0.000000,,2013-02-13 08:01:00,
2013-02-13 08:11:00,23.0,12.0,-100.00,WSW,240,27.0,43.0,61,-99.99,,,0.02,0.000000,,2013-02-13 08:11:00,
2013-02-13 08:21:00,23.0,12.0,-100.00,WSW,240,27.0,43.0,61,-99.99,,,0.02,0.000000,,2013-02-13 08:21:00,
2013-02-13 08:31:00,23.0,12.0,-100.00,WSW,240,27.0,43.0,61,-99.99,,,0.02,0.000000,,2013-02-13 08:31:00,
2013-02-13 09:01:00,25.0,13.0,-100.00,West,263,33.0,51.0,59,-99.99,,,0.02,0.000000,,2013-02-13 09:01:00,
2013-02-13 09:11:00,25.0,13.0,-100.00,West,263,33.0,51.0,59,-99.99,,,0.02,0.000000,,2013-02-13 09:11:00,
2013-02-13 09:21:00,25.0,13.0,-100.00,West,263,33.0,51.0,59,-99.99,,,0.02,0.000000,,2013-02-13 09:21:00,
2013-02-13 09:31:00,25.0,13.0,-100.00,West,263,33.0,51.0,59,-99.99,,,0.02,0.000000,,2013-02-13 09:31:00,
2013-02-13 10:01:00,24.0,13.0,-100.00,WSW,258,27.0,53.0,61,-99.99,,,0.02,0.000000,,2013-02-13 10:01:00,
2013-02-13 10:11:00,24.0,13.0,-100.00,WSW,258,27.0,53.0,61,-99.99,,,0.02,0.000000,,2013-02-13 10:11:00,
2013-02-13 10:21:00,24.0,13.0,-100.00,WSW,258,27.0,53.0,61,-99.99,,,0.02,0.000000,,2013-02-13 10:21:00,
2013-02-13 10:31:00,24.0,13.0,-100.00,WSW,258,27.0,53.0,61,-99.99,,,0.02,0.000000,,2013-02-13 10:31:00,
2013-02-13 11:01:00,22.0,13.0,-100.00,WSW,239,26.0,52.0,68,-99.99,,,0.02,0.000000,,2013-02-13 11:01:00,
2013-02-13 11:11:00,22.0,13.0,-100.00,WSW,239,26.0,52.0,68,-99.99,,,0.02,0.000000,,2013-02-13 11:11:00,
2013-02-13 11:22:00,22.0,13.0,-100.00,WSW,239,26.0,52.0,68,-99.99,,,0.02,0.000000,,2013-02-13 11:22:00,
2013-02-13 11:32:00,22.0,13.0,-100.00,WSW,239,26.0,52.0,68,-99.99,,,0.02,0.000000,,2013-02-13 11:32:00,
2013-02-13 11:40:00,20.0,13.0,-100.00,SW,226,5.0,48.0,73,0.00,,,0.02,0.000000,,2013-02-13 11:40:00,
2013-02-13 12:02:00,20.0,13.0,-100.00,SW,226,5.0,48.0,73,0.00,,,0.02,0.000000,,2013-02-13 12:02:00,
2013-02-13 12:11:00,20.0,13.0,-100.00,SW,226,5.0,48.0,73,0.00,,,0.02,0.000000,,2013-02-13 12:11:00,
2013-02-13 12:21:00,20.0,13.0,-100.00,SW,226,5.0,48.0,73,0.00,,,0.02,0.000000,,2013-02-13 12:21:00,
2013-02-13 12:32:00,20.0,13.0,-100.00,SW,226,5.0,48.0,73,0.00,,,0.02,0.000000,,2013-02-13 12:32:00,
2013-02-13 12:40:00,21.0,14.0,-100.00,SW,215,14.0,30.0,74,0.00,,,0.02,0.000000,,2013-02-13 12:40:00,
2013-02-13 13:02:00,21.0,14.0,-100.00,SW,215,14.0,30.0,74,0.00,,,0.02,0.000000,,2013-02-13 13:02:00,
2013-02-13 13:11:00,21.0,14.0,-100.00,SW,215,14.0,30.0,74,0.00,,,0.02,0.000000,,2013-02-13 13:11:00,
2013-02-13 13:21:00,21.0,14.0,-100.00,SW,215,14.0,30.0,74,0.00,,,0.02,0.000000,,2013-02-13 13:21:00,
2013-02-13 13:31:00,21.0,14.0,-100.00,SW,215,14.0,30.0,74,0.00,,,0.02,0.000000,,2013-02-13 13:31:00,
2013-02-13 13:40:00,20.0,14.0,-100.00,SSW,212,11.0,26.0,78,0.00,,,0.02,0.000000,,2013-02-13 13:40:00,
2013-02-13 14:01:00,20.0,14.0,-100.00,SSW,212,11.0,26.0,78,0.00,,,0.02,0.000000,,2013-02-13 14:01:00,
2013-02-13 14:11:00,20.0,14.0,-100.00,SSW,212,11.0,26.0,78,0.00,,,0.02,0.000000,,2013-02-13 14:11:00,
2013-02-13 14:21:00,20.0,14.0,-100.00,SSW,212,11.0,26.0,78,0.00,,,0.02,0.000000,,2013-02-13 14:21:00,
2013-02-13 14:31:00,20.0,14.0,-100.00,SSW,212,11.0,26.0,78,0.00,,,0.02,0.000000,,2013-02-13 14:31:00,
2013-02-13 14:40:00,22.0,13.0,-100.00,SSE,164,5.0,22.0,69,0.00,,,0.02,2.000000,,2013-02-13 14:40:00,
2013-02-13 15:01:00,22.0,13.0,-100.00,SSE,164,5.0,22.0,69,0.00,,,0.02,2.000000,,2013-02-13 15:01:00,
2013-02-13 15:11:00,22.0,13.0,-100.00,SSE,164,5.0,22.0,69,0.00,,,0.02,2.000000,,2013-02-13 15:11:00,
2013-02-13 15:21:00,22.0,13.0,-100.00,SSE,164,5.0,22.0,69,0.00,,,0.02,2.000000,,2013-02-13 15:21:00,
2013-02-13 15:31:00,22.0,13.0,-100.00,SSE,164,5.0,22.0,69,0.00,,,0.02,2.000000,,2013-02-13 15:31:00,
2013-02-13 16:01:00,26.0,11.0,-100.00,West,266,20.0,43.0,53,0.00,,,0.02,41.000000,,2013-02-13 16:01:00,
2013-02-13 16:11:00,26.0,11.0,-100.00,West,266,20.0,43.0,53,0.00,,,0.02,41.000000,,2013-02-13 16:11:00,
2013-02-13 16:21:00,26.0,11.0,-100.00,West,266,20.0,43.0,53,0.00,,,0.02,41.000000,,2013-02-13 16:21:00,
2013-02-13 16:31:00,26.0,11.0,-100.00,West,266,20.0,43.0,53,0.00,,,0.02,41.000000,,2013-02-13 16:31:00,
2013-02-13 16:40:00,27.0,11.0,-100.00,West,269,23.0,47.0,51,0.00,,,0.02,185.000000,,2013-02-13 16:40:00,
2013-02-13 17:01:00,27.0,11.0,-100.00,West,269,23.0,47.0,51,0.00,,,0.02,185.000000,,2013-02-13 17:01:00,
2013-02-13 17:11:00,27.0,11.0,-100.00,West,269,23.0,47.0,51,0.00,,,0.02,185.000000,,2013-02-13 17:11:00,
2013-02-13 17:21:00,27.0,11.0,-100.00,West,269,23.0,47.0,51,0.00,,,0.02,185.000000,,2013-02-13 17:21:00,
2013-02-13 17:31:00,27.0,11.0,-100.00,West,269,23.0,47.0,51,0.00,,,0.02,185.000000,,2013-02-13 17:31:00,
2013-02-13 18:01:00,33.0,12.0,-100.00,West,275,12.0,46.0,42,0.00,,,0.02,448.000000,,2013-02-13 18:01:00,
2013-02-13 19:01:00,32.0,9.0,-100.00,West,275,19.0,43.0,37,-99.99,,,0.02,635.000000,,2013-02-13 19:01:00,
2013-02-13 20:02:00,33.0,11.0,-100.00,West,261,15.0,42.0,40,-99.99,,,0.02,633.000000,,2013-02-13 20:02:00,
2013-02-13 21:01:00,32.0,14.0,-100.00,WSW,253,14.0,42.0,47,-99.99,,,0.02,593.000000,,2013-02-13 21:01:00,
2013-02-13 21:11:00,32.0,14.0,-100.00,WSW,253,14.0,42.0,47,-99.99,,,0.02,593.000000,,2013-02-13 21:11:00,
2013-02-13 21:21:00,32.0,14.0,-100.00,WSW,253,14.0,42.0,47,-99.99,,,0.02,593.000000,,2013-02-13 21:21:00,
2013-02-13 21:31:00,32.0,14.0,-100.00,WSW,253,14.0,42.0,47,-99.99,,,0.02,593.000000,,2013-02-13 21:31:00,
2013-02-13 21:40:00,32.0,10.0,-100.00,West,272,17.0,42.0,39,0.00,,,0.01,548.000000,,2013-02-13 21:40:00,
2013-02-13 22:02:00,32.0,10.0,-100.00,West,272,17.0,42.0,39,0.00,,,0.01,548.000000,,2013-02-13 22:02:00,
2013-02-13 22:11:00,32.0,10.0,-100.00,West,272,17.0,42.0,39,0.00,,,0.01,548.000000,,2013-02-13 22:11:00,
2013-02-13 22:40:00,31.0,12.0,-100.00,WSW,251,13.0,36.0,45,0.00,,,0.01,488.000000,,2013-02-13 22:40:00,
2013-02-13 23:01:00,31.0,12.0,-100.00,WSW,251,13.0,36.0,45,0.00,,,0.01,488.000000,,2013-02-13 23:01:00,
2013-02-13 23:11:00,31.0,12.0,-100.00,WSW,251,13.0,36.0,45,0.00,,,0.01,488.000000,,2013-02-13 23:11:00,
2013-02-13 23:21:00,31.0,12.0,-100.00,WSW,251,13.0,36.0,45,0.00,,,0.01,488.000000,,2013-02-13 23:21:00,
2013-02-13 23:31:00,31.0,12.0,-100.00,WSW,251,13.0,36.0,45,0.00,,,0.01,488.000000,,2013-02-13 23:31:00,
2013-02-13 23:40:00,29.0,14.0,-100.00,WSW,247,10.0,26.0,53,0.00,,,0.01,290.000000,,2013-02-13 23:40:00,